Time;durP1;ratioP1;P1;durP2;ratioP2;P2;SDS_P1;SDS_P2;PMS_P1;PMS_P2;Temp;Humidity;BMP_temperature;BMP_pressure;BME280_temperature;BME280_humidity;BME280_pressure;Samples;Min_cycle;Max_cycle;Signal;HPM_P1;HPM_P2
2023/07/07 00:00:19;;;;;;;4.70;1.83;;;;;;;17.41;88.34;99841.69;5032542;28;20045;-44
2023/07/07 00:02:48;;;;;;;3.63;1.77;;;;;;;17.42;88.07;99844.06;5030375;28;20052;-46
2023/07/07 00:05:15;;;;;;;5.32;1.90;;;;;;;17.42;87.95;99840.50;5006557;28;20565;-46
2023/07/07 00:07:41;;;;;;;5.32;1.70;;;;;;;17.41;87.94;99845.31;5031866;28;20041;-46
2023/07/07 00:10:09;;;;;;;5.03;2.67;;;;;;;17.41;87.98;99842.50;5032519;28;20049;-46
2023/07/07 00:12:38;;;;;;;5.97;2.10;;;;;;;17.42;87.96;99846.88;5031513;28;20445;-44
2023/07/07 00:15:06;;;;;;;4.78;2.60;;;;;;;17.44;87.68;99840.88;5031208;28;20038;-46
2023/07/07 00:17:33;;;;;;;6.60;2.08;;;;;;;17.43;87.93;99831.69;5031466;28;20045;-45
2023/07/07 00:20:06;;;;;;;3.97;1.95;;;;;;;17.43;87.63;99817.69;5028910;28;20046;-44
2023/07/07 00:22:34;;;;;;;3.80;2.33;;;;;;;17.43;87.74;99828.88;5032557;28;20542;-44
2023/07/07 00:25:04;;;;;;;5.18;1.90;;;;;;;17.40;87.62;99826.91;5031231;28;20107;-44
2023/07/07 00:27:31;;;;;;;5.43;1.73;;;;;;;17.40;87.57;99826.91;5032019;28;20107;-45
2023/07/07 00:29:58;;;;;;;5.32;1.48;;;;;;;17.37;87.54;99821.34;5021570;28;20604;-45
2023/07/07 00:32:26;;;;;;;5.20;1.08;;;;;;;17.32;87.67;99825.38;5032098;28;20037;-48
2023/07/07 00:34:54;;;;;;;2.03;0.98;;;;;;;17.32;87.77;99832.97;5029684;28;20582;-45
2023/07/07 00:37:21;;;;;;;4.30;1.25;;;;;;;17.29;87.97;99834.59;5031163;28;20045;-45
2023/07/07 00:39:48;;;;;;;3.03;1.08;;;;;;;17.28;87.94;99838.63;5031432;28;20041;-45
2023/07/07 00:42:14;;;;;;;2.75;1.20;;;;;;;17.26;88.14;99843.81;5031851;28;20487;-45
2023/07/07 00:45:20;;;;;;;6.88;1.20;;;;;;;17.27;88.29;99825.81;5030896;28;20087;-45
2023/07/07 00:47:59;;;;;;;3.25;0.82;;;;;;;17.27;88.22;99819.44;4948791;28;20053;-45
2023/07/07 00:50:33;;;;;;;3.05;0.70;;;;;;;17.26;88.22;99829.81;4950409;29;20050;-44
2023/07/07 00:53:00;;;;;;;2.60;1.23;;;;;;;17.24;88.11;99826.66;5000435;28;20080;-45
2023/07/07 00:55:33;;;;;;;2.92;0.95;;;;;;;17.21;88.19;99830.25;5027719;28;20052;-46
2023/07/07 00:58:03;;;;;;;1.63;0.80;;;;;;;17.19;88.32;99829.88;5031319;28;20041;-46
2023/07/07 01:00:30;;;;;;;2.47;0.60;;;;;;;17.17;88.43;99832.31;5030536;28;20155;-45
2023/07/07 01:02:57;;;;;;;1.50;0.77;;;;;;;17.15;88.50;99834.72;5031504;28;20573;-46
2023/07/07 01:05:29;;;;;;;2.88;1.10;;;;;;;17.13;88.65;99842.72;5029106;28;20041;-48
2023/07/07 01:08:01;;;;;;;2.70;0.50;;;;;;;17.12;88.77;99835.53;5031013;28;20041;-45
2023/07/07 01:10:28;;;;;;;2.85;0.50;;;;;;;17.12;88.64;99840.34;5031277;28;20065;-45
2023/07/07 01:12:54;;;;;;;0.30;0.30;;;;;;;17.11;88.75;99845.13;5027414;28;20049;-46
2023/07/07 01:15:25;;;;;;;0.45;0.32;;;;;;;17.11;88.77;99839.53;5030308;28;20443;-46
2023/07/07 01:17:54;;;;;;;0.57;0.35;;;;;;;17.14;89.00;99844.31;5029255;28;20076;-44
2023/07/07 01:20:31;;;;;;;2.70;1.80;;;;;;;17.15;88.94;99847.91;5027959;28;20061;-44
2023/07/07 01:23:12;;;;;;;0.90;0.17;;;;;;;17.16;89.08;99850.28;5031234;28;20144;-46
2023/07/07 01:25:42;;;;;;;0.32;0.30;;;;;;;17.17;89.08;99854.69;5030789;28;20052;-44
2023/07/07 01:28:31;;;;;;;1.05;0.10;;;;;;;17.18;89.14;99856.28;5024611;28;20034;-45
2023/07/07 01:31:16;;;;;;;0.98;0.30;;;;;;;17.17;89.27;99849.09;5031229;28;20103;-47
2023/07/07 01:33:45;;;;;;;0.20;0.20;;;;;;;17.17;89.02;99851.09;5031330;28;20068;-46
2023/07/07 01:36:12;;;;;;;0.55;0.20;;;;;;;17.17;89.41;99851.09;5031260;28;20160;-46
2023/07/07 01:38:42;;;;;;;0.30;0.10;;;;;;;17.16;89.33;99852.28;5030789;28;20077;-45
2023/07/07 01:41:30;;;;;;;1.00;0.17;;;;;;;17.15;89.45;99857.09;5030086;28;20207;-45
2023/07/07 01:44:25;;;;;;;1.33;0.20;;;;;;;17.15;89.80;99862.69;5029180;28;20045;-46
2023/07/07 01:47:03;;;;;;;0.82;0.30;;;;;;;17.16;89.81;99858.69;5028267;28;20052;-47
2023/07/07 01:49:37;;;;;;;0.45;0.20;;;;;;;17.19;89.66;99866.25;5029406;28;20479;-45
2023/07/07 01:52:18;;;;;;;0.63;0.30;;;;;;;17.22;89.86;99870.22;5030946;28;20060;-46
2023/07/07 01:54:51;;;;;;;0.30;0.20;;;;;;;17.23;89.66;99869.03;5030802;28;20046;-46
2023/07/07 01:57:20;;;;;;;2.05;0.30;;;;;;;17.25;90.00;99866.63;5030745;28;20039;-45
2023/07/07 01:59:47;;;;;;;0.77;0.30;;;;;;;17.25;90.07;99873.00;5030910;28;20042;-46
2023/07/07 02:02:14;;;;;;;0.43;0.25;;;;;;;17.27;90.18;99870.59;5029298;28;20062;-47
2023/07/07 02:04:41;;;;;;;0.10;0.10;;;;;;;17.30;90.27;99874.56;5026541;28;20491;-45
2023/07/07 02:07:08;;;;;;;0.52;0.13;;;;;;;17.31;90.38;99876.16;5028981;28;20053;-45
2023/07/07 02:09:36;;;;;;;1.17;0.15;;;;;;;17.32;90.27;99872.94;5028307;28;20041;-45
2023/07/07 02:12:03;;;;;;;0.65;0.28;;;;;;;17.35;90.27;99871.31;5027262;28;20080;-46
2023/07/07 02:14:30;;;;;;;1.90;0.38;;;;;;;17.35;90.26;99877.72;5020195;28;20056;-45
2023/07/07 02:16:57;;;;;;;3.25;0.50;;;;;;;17.37;90.25;99880.91;5030688;28;20837;-45
2023/07/07 02:19:24;;;;;;;0.68;0.50;;;;;;;17.39;90.17;99878.50;5033424;28;20073;-46
2023/07/07 02:21:51;;;;;;;1.85;0.50;;;;;;;17.42;90.11;99879.69;5030141;28;20495;-45
2023/07/07 02:24:20;;;;;;;3.97;0.70;;;;;;;17.42;90.03;99877.66;5031109;28;20068;-46
2023/07/07 02:26:49;;;;;;;0.82;0.40;;;;;;;17.44;90.13;99886.44;5014080;28;20057;-45
2023/07/07 02:29:17;;;;;;;2.60;0.85;;;;;;;17.44;90.05;99880.84;5030691;28;20075;-45
2023/07/07 02:31:44;;;;;;;2.97;0.52;;;;;;;17.43;89.95;99884.84;5026427;28;20049;-49
2023/07/07 02:34:13;;;;;;;0.95;0.40;;;;;;;17.43;90.05;99887.66;5030293;28;20064;-46
2023/07/07 02:36:40;;;;;;;1.23;0.40;;;;;;;17.44;90.13;99880.84;5029497;28;20050;-45
2023/07/07 02:39:07;;;;;;;2.90;0.57;;;;;;;17.44;90.30;99885.66;5023704;28;20050;-46
2023/07/07 02:41:34;;;;;;;0.93;0.30;;;;;;;17.44;90.18;99897.66;5032890;28;20095;-45
2023/07/07 02:44:00;;;;;;;3.33;0.40;;;;;;;17.44;90.08;99892.06;5033085;28;20053;-46
2023/07/07 02:46:27;;;;;;;0.65;0.30;;;;;;;17.43;90.35;99896.03;5031469;28;20103;-45
2023/07/07 02:48:54;;;;;;;0.47;0.20;;;;;;;17.41;90.48;99890.06;5032594;28;20080;-45
2023/07/07 02:51:21;;;;;;;0.77;0.20;;;;;;;17.38;90.73;99888.09;5033459;28;20050;-47
2023/07/07 02:53:48;;;;;;;0.43;0.20;;;;;;;17.33;90.87;99884.94;5024207;28;20382;-46
2023/07/07 02:56:15;;;;;;;0.38;0.25;;;;;;;17.28;91.29;99894.56;5032417;28;20045;-45
2023/07/07 02:58:41;;;;;;;1.55;0.28;;;;;;;17.28;91.42;99902.97;5032713;28;20446;-45
2023/07/07 03:01:19;;;;;;;3.42;0.30;;;;;;;17.22;91.75;99901.81;5041009;22;20117;-46
2023/07/07 03:03:51;;;;;;;0.73;0.20;;;;;;;17.21;91.90;99905.78;5012165;28;20080;-46
2023/07/07 03:06:21;;;;;;;0.35;0.20;;;;;;;17.19;92.13;99902.63;5012962;28;20080;-53
2023/07/07 03:08:48;;;;;;;1.27;0.30;;;;;;;17.18;92.20;99906.63;4994916;28;20499;-48
2023/07/07 03:11:19;;;;;;;0.30;0.10;;;;;;;17.18;92.30;99909.44;4992802;28;20089;-45
2023/07/07 03:13:47;;;;;;;0.68;0.20;;;;;;;17.17;92.53;99904.22;4998059;28;20137;-45
2023/07/07 03:16:23;;;;;;;0.47;0.20;;;;;;;17.15;92.46;99901.84;5013078;28;20072;-48
2023/07/07 03:18:55;;;;;;;0.52;0.20;;;;;;;17.12;92.47;99905.47;5013837;28;20081;-46
2023/07/07 03:21:22;;;;;;;;;;;;;;;17.08;93.03;99906.72;5012793;28;20046;-47
2023/07/07 03:23:53;;;;;;;1.50;0.20;;;;;;;17.04;92.66;99907.53;5011396;28;19921;-46
2023/07/07 03:26:23;;;;;;;1.95;0.55;;;;;;;17.00;92.72;99905.94;5012600;28;20050;-45
2023/07/07 03:28:50;;;;;;;0.55;0.30;;;;;;;17.00;92.90;99901.13;5010633;28;20053;-46
2023/07/07 03:31:26;;;;;;;0.45;0.30;;;;;;;16.98;93.14;99897.16;5011896;28;20075;-46
2023/07/07 03:33:56;;;;;;;0.45;0.20;;;;;;;16.95;93.31;99900.78;4994836;28;20050;-45
2023/07/07 03:36:30;;;;;;;1.73;0.40;;;;;;;16.93;93.44;99900.38;5012343;28;20034;-48
2023/07/07 03:38:57;;;;;;;1.25;0.68;;;;;;;16.90;93.69;99909.59;5012985;28;20039;-45
2023/07/07 03:41:27;;;;;;;1.20;0.32;;;;;;;16.90;93.88;99909.59;5013023;28;20065;-46
2023/07/07 03:43:55;;;;;;;0.90;0.43;;;;;;;16.89;94.04;99910.81;5011774;28;20054;-45
2023/07/07 03:46:24;;;;;;;0.68;0.30;;;;;;;16.90;94.25;99915.19;5015206;28;20049;-45
2023/07/07 03:48:53;;;;;;;0.65;0.30;;;;;;;16.90;94.46;99910.38;5012165;28;20038;-45
2023/07/07 03:51:22;;;;;;;1.38;0.65;;;;;;;16.91;94.46;99911.19;5012638;28;20133;-46
2023/07/07 03:53:50;;;;;;;1.75;0.28;;;;;;;16.94;94.55;99919.53;5011831;28;20040;-45
2023/07/07 03:56:18;;;;;;;0.45;0.40;;;;;;;16.96;94.59;99922.75;5012731;28;20050;-45
2023/07/07 03:58:45;;;;;;;0.77;0.50;;;;;;;16.96;94.58;99917.16;5012621;28;20053;-46
2023/07/07 04:01:13;;;;;;;0.70;0.20;;;;;;;16.97;94.57;99913.13;5012383;28;20104;-45
2023/07/07 04:03:42;;;;;;;0.57;0.20;;;;;;;17.00;94.71;99919.91;5010594;28;20080;-44
2023/07/07 04:06:12;;;;;;;1.07;0.20;;;;;;;17.00;94.48;99917.13;5012436;28;20046;-45
2023/07/07 04:08:39;;;;;;;0.20;0.10;;;;;;;17.02;94.66;99925.91;5011821;28;20299;-48
2023/07/07 04:11:09;;;;;;;0.20;0.10;;;;;;;17.02;94.60;99914.72;5009063;28;20491;-48
2023/07/07 04:13:38;;;;;;;0.22;0.10;;;;;;;17.02;94.64;99920.31;5008761;28;20042;-45
2023/07/07 04:16:12;;;;;;;0.20;0.10;;;;;;;17.03;94.68;99916.31;5008970;28;20460;-49
2023/07/07 04:18:40;;;;;;;0.22;0.22;;;;;;;17.03;94.75;99927.50;5009402;28;20041;-47
2023/07/07 04:21:12;;;;;;;0.22;0.22;;;;;;;17.04;94.80;99923.50;5010890;28;20042;-45
2023/07/07 04:23:40;;;;;;;0.32;0.10;;;;;;;17.06;94.72;99926.69;5008305;28;20048;-45
2023/07/07 04:26:09;;;;;;;0.55;0.13;;;;;;;17.07;94.76;99936.66;5004206;28;20041;-45
2023/07/07 04:28:36;;;;;;;0.10;0.10;;;;;;;17.09;94.64;99937.06;5010548;28;20056;-46
2023/07/07 04:31:05;;;;;;;0.30;0.15;;;;;;;17.10;94.76;99938.66;5012174;28;20081;-46
2023/07/07 04:33:33;;;;;;;1.30;0.47;;;;;;;17.09;94.74;99931.47;5011638;28;20054;-44
2023/07/07 04:36:03;;;;;;;0.73;0.32;;;;;;;17.11;94.67;99950.63;5010901;28;20088;-45
2023/07/07 04:38:31;;;;;;;0.73;0.30;;;;;;;17.10;94.76;99938.66;4982346;28;20142;-46
2023/07/07 04:41:14;;;;;;;0.43;0.20;;;;;;;17.12;94.68;99946.63;5008766;28;20777;-48
2023/07/07 04:43:44;;;;;;;0.45;0.28;;;;;;;17.12;94.75;99947.44;5005826;28;20041;-45
2023/07/07 04:46:14;;;;;;;2.58;0.40;;;;;;;17.13;94.60;99948.22;5009512;28;20403;-47
2023/07/07 04:48:42;;;;;;;4.63;0.60;;;;;;;17.13;95.06;99957.38;5008735;28;20041;-44
2023/07/07 04:51:10;;;;;;;0.85;0.30;;;;;;;17.14;94.67;99953.41;4990954;28;20074;-45
2023/07/07 04:53:39;;;;;;;0.82;0.60;;;;;;;17.15;94.63;99955.00;5009494;28;20046;-46
2023/07/07 04:56:11;;;;;;;1.13;0.45;;;;;;;17.16;94.47;99964.97;5006684;28;20049;-45
2023/07/07 04:58:40;;;;;;;0.80;0.70;;;;;;;17.19;94.30;99963.34;5010436;28;20751;-46
2023/07/07 05:01:11;;;;;;;1.77;0.80;;;;;;;17.21;94.36;99967.34;5009597;28;20058;-44
2023/07/07 05:03:41;;;;;;;2.45;0.80;;;;;;;17.22;93.99;99968.94;5008745;28;20046;-44
2023/07/07 05:06:10;;;;;;;2.40;1.00;;;;;;;17.23;93.94;99976.13;5009374;28;20145;-48
2023/07/07 05:08:39;;;;;;;0.80;0.80;;;;;;;17.25;93.85;99972.91;5010456;28;20132;-45
2023/07/07 05:11:09;;;;;;;1.75;0.70;;;;;;;17.27;93.78;99964.91;5009504;28;20040;-44
2023/07/07 05:13:36;;;;;;;3.13;1.05;;;;;;;17.29;93.71;99982.09;5008144;28;20042;-45
2023/07/07 05:16:05;;;;;;;2.53;0.88;;;;;;;17.28;93.63;99972.91;5011101;28;20050;-44
2023/07/07 05:18:32;;;;;;;2.30;1.40;;;;;;;17.29;93.69;99980.06;5008246;28;20034;-44
2023/07/07 05:21:00;;;;;;;2.03;0.80;;;;;;;17.30;93.62;99981.69;5014897;28;20072;-45
2023/07/07 05:23:31;;;;;;;3.88;1.63;;;;;;;17.30;93.53;99981.69;5009570;28;20049;-45
2023/07/07 05:25:58;;;;;;;3.78;1.60;;;;;;;17.32;93.61;99979.25;4993889;28;20486;-45
2023/07/07 05:28:26;;;;;;;8.55;2.97;;;;;;;17.30;93.70;99987.28;5009199;28;20542;-45
2023/07/07 05:30:53;;;;;;;12.82;3.58;;;;;;;17.28;93.95;99989.69;5009200;28;20034;-45
2023/07/07 05:33:21;;;;;;;9.35;2.22;;;;;;;17.24;94.08;99977.72;5005710;28;20496;-45
2023/07/07 05:35:53;;;;;;;9.13;2.58;;;;;;;17.19;94.27;99980.94;4994698;28;20042;-45
2023/07/07 05:38:23;;;;;;;6.93;2.38;;;;;;;17.15;94.61;99990.56;5009821;28;20050;-47
2023/07/07 05:40:51;;;;;;;9.80;3.05;;;;;;;17.11;94.88;99990.56;4976593;28;20618;-48
2023/07/07 05:43:20;;;;;;;9.30;3.63;;;;;;;17.07;94.96;99989.81;4976708;28;20046;-47
2023/07/07 05:45:47;;;;;;;11.85;2.88;;;;;;;17.05;95.14;99987.41;4976009;28;20692;-48
2023/07/07 05:48:14;;;;;;;7.82;2.40;;;;;;;17.02;95.43;99979.81;4976238;28;20054;-45
2023/07/07 05:50:43;;;;;;;7.13;2.13;;;;;;;16.98;95.55;99981.06;4974785;28;20082;-45
2023/07/07 05:53:10;;;;;;;8.00;2.22;;;;;;;16.97;95.93;99991.44;4979654;28;20153;-49
2023/07/07 05:55:38;;;;;;;6.55;1.58;;;;;;;16.95;95.94;99987.44;4979807;28;20058;-46
2023/07/07 05:58:06;;;;;;;7.32;1.88;;;;;;;16.94;96.22;99991.47;4979348;28;21738;-49
2023/07/07 06:00:34;;;;;;;7.50;1.20;;;;;;;16.93;96.61;99996.25;4979987;28;20064;-46
2023/07/07 06:03:01;;;;;;;8.43;1.48;;;;;;;16.93;96.64;99999.06;4972555;28;20046;-49
2023/07/07 06:05:28;;;;;;;3.25;0.95;;;;;;;16.93;96.64;99999.06;4974470;28;20229;-47
2023/07/07 06:07:55;;;;;;;4.82;1.02;;;;;;;16.96;96.70;100006.63;4974463;28;20999;-48
2023/07/07 06:10:22;;;;;;;5.50;2.55;;;;;;;16.99;96.88;99999.44;4971766;28;20046;-50
2023/07/07 06:12:49;;;;;;;3.45;0.70;;;;;;;16.98;97.17;99987.44;4977971;28;20166;-45
2023/07/07 06:15:16;;;;;;;5.45;0.90;;;;;;;17.01;96.99;100020.19;4975234;28;20077;-47
2023/07/07 06:17:47;;;;;;;3.05;0.93;;;;;;;17.02;97.14;100018.97;4979137;28;20050;-49
2023/07/07 06:20:14;;;;;;;1.75;0.38;;;;;;;17.06;97.01;100027.34;4955242;28;20048;-47
2023/07/07 06:22:41;;;;;;;2.97;0.73;;;;;;;17.09;97.03;100020.97;4978371;28;20141;-50
2023/07/07 06:25:09;;;;;;;0.80;0.30;;;;;;;17.13;97.03;100021.72;4978436;28;20173;-50
2023/07/07 06:27:35;;;;;;;2.05;0.60;;;;;;;17.16;97.15;100043.28;4977742;28;20046;-47
2023/07/07 06:30:03;;;;;;;17.33;7.13;;;;;;;17.19;97.08;100045.28;4975081;28;20046;-48
2023/07/07 06:32:30;;;;;;;12.70;5.25;;;;;;;17.23;96.96;100046.06;4969091;28;21303;-48
2023/07/07 06:34:56;;;;;;;3.75;1.50;;;;;;;17.29;96.83;100046.44;4974755;28;20065;-49
2023/07/07 06:37:23;;;;;;;1.88;1.05;;;;;;;17.32;96.73;100049.22;4969349;28;20080;-49
2023/07/07 06:39:50;;;;;;;22.02;10.07;;;;;;;17.38;96.71;100060.78;4971646;28;20054;-48
2023/07/07 06:42:17;;;;;;;21.42;9.68;;;;;;;17.41;96.64;100051.56;4976803;28;20677;-46
2023/07/07 06:44:44;;;;;;;11.27;5.55;;;;;;;17.46;96.55;100060.34;4968618;28;20137;-49
2023/07/07 06:47:13;;;;;;;5.20;1.70;;;;;;;17.53;96.60;100063.13;4977118;28;20104;-47
2023/07/07 06:49:40;;;;;;;4.35;2.00;;;;;;;17.59;96.29;100055.91;4973365;28;20050;-47
2023/07/07 06:52:08;;;;;;;5.65;2.22;;;;;;;17.67;96.25;100059.44;4978094;28;20135;-49
2023/07/07 06:54:35;;;;;;;4.20;2.58;;;;;;;17.78;95.85;100064.97;4966548;28;20684;-49
2023/07/07 06:57:02;;;;;;;7.22;2.85;;;;;;;17.87;95.68;100070.91;4976512;28;20050;-50
2023/07/07 06:59:30;;;;;;;8.73;3.13;;;;;;;17.91;95.04;100074.47;4977995;28;20836;-48
2023/07/07 07:01:56;;;;;;;8.15;3.28;;;;;;;17.97;94.71;100070.84;4978205;28;20090;-48
2023/07/07 07:04:23;;;;;;;6.60;2.70;;;;;;;18.11;94.41;100076.31;4977650;28;20049;-46
2023/07/07 07:06:50;;;;;;;10.40;3.50;;;;;;;18.19;93.72;100071.44;4975269;28;20073;-50
2023/07/07 07:09:17;;;;;;;9.80;3.28;;;;;;;18.21;93.28;100080.25;4972618;28;20054;-46
2023/07/07 07:11:44;;;;;;;8.57;3.78;;;;;;;18.23;92.77;100080.63;4976158;28;20135;-49
2023/07/07 07:14:14;;;;;;;8.35;2.88;;;;;;;18.25;92.48;100083.81;4975849;28;21138;-48
2023/07/07 07:16:41;;;;;;;9.38;3.88;;;;;;;18.30;92.50;100072.16;4978118;28;20053;-47
2023/07/07 07:19:08;;;;;;;6.57;3.10;;;;;;;18.33;91.92;100085.34;4978482;28;20136;-49
2023/07/07 07:21:34;;;;;;;8.52;3.25;;;;;;;18.32;91.65;100083.75;4978657;28;20049;-48
2023/07/07 07:24:01;;;;;;;8.27;3.20;;;;;;;18.33;91.43;100101.38;4978320;28;21636;-48
2023/07/07 07:26:28;;;;;;;10.40;4.38;;;;;;;18.35;91.02;100080.13;4978735;28;20061;-48
2023/07/07 07:28:56;;;;;;;10.48;4.65;;;;;;;18.45;90.77;100084.06;4978675;28;20179;-49
2023/07/07 07:31:23;;;;;;;18.55;7.53;;;;;;;18.60;90.64;100096.75;4976858;28;20072;-47
2023/07/07 07:33:52;;;;;;;12.40;4.97;;;;;;;18.71;90.11;100081.44;4973937;28;20926;-49
2023/07/07 07:36:21;;;;;;;9.52;4.25;;;;;;;18.78;89.33;100092.56;4977743;28;20077;-49
2023/07/07 07:38:47;;;;;;;7.75;3.70;;;;;;;18.81;89.02;100108.56;4976026;28;20846;-52
2023/07/07 07:41:14;;;;;;;12.70;4.53;;;;;;;18.80;89.00;100106.16;4975694;28;20050;-51
2023/07/07 07:43:41;;;;;;;15.00;6.05;;;;;;;18.80;88.61;100106.97;4977173;28;20049;-50
2023/07/07 07:46:08;;;;;;;14.70;4.57;;;;;;;18.80;88.54;100117.38;4950539;28;21180;-51
2023/07/07 07:48:38;;;;;;;13.63;5.55;;;;;;;18.77;88.40;100113.41;4976621;28;20056;-48
2023/07/07 07:51:06;;;;;;;12.93;5.40;;;;;;;18.78;88.29;100115.00;4977303;28;20064;-51
2023/07/07 07:53:52;;;;;;;15.30;4.57;;;;;;;18.80;88.04;100118.19;4974442;28;20057;-47
2023/07/07 07:56:19;;;;;;;14.98;5.20;;;;;;;18.82;87.54;100134.59;4973481;28;20050;-46
2023/07/07 07:58:47;;;;;;;13.30;5.50;;;;;;;18.83;87.33;100122.16;4977230;28;20272;-47
2023/07/07 08:01:14;;;;;;;10.95;5.38;;;;;;;18.85;87.10;100120.53;4974960;28;20074;-47
2023/07/07 08:03:41;;;;;;;16.50;5.25;;;;;;;18.90;86.70;100122.09;4974685;28;20534;-55
2023/07/07 08:06:08;;;;;;;12.73;4.80;;;;;;;18.94;86.56;100127.66;4961981;28;20373;-52
2023/07/07 08:08:35;;;;;;;13.35;5.53;;;;;;;19.02;86.23;100134.78;4975569;28;20045;-53
2023/07/07 08:11:02;;;;;;;14.65;5.75;;;;;;;19.13;86.36;100141.09;4958277;28;20145;-56
2023/07/07 08:13:39;;;;;;;11.13;5.25;;;;;;;19.20;85.94;100129.78;4956747;28;20108;-53
2023/07/07 08:16:10;;;;;;;14.55;5.05;;;;;;;19.29;85.64;100138.50;4975186;28;20500;-55
2023/07/07 08:18:40;;;;;;;12.48;5.32;;;;;;;19.33;85.32;100144.84;4972695;28;20621;-51
2023/07/07 08:21:07;;;;;;;15.13;5.65;;;;;;;19.37;84.70;100142.81;4975299;28;20626;-52
2023/07/07 08:23:34;;;;;;;16.88;5.20;;;;;;;19.46;84.73;100153.59;4973430;28;20064;-56
2023/07/07 08:26:01;;;;;;;14.80;6.18;;;;;;;19.49;84.17;100149.91;4975572;28;20046;-53
2023/07/07 08:28:30;;;;;;;8.52;4.25;;;;;;;19.51;83.80;100151.09;4973927;28;20769;-55
2023/07/07 08:31:01;;;;;;;9.85;4.65;;;;;;;19.56;83.52;100147.03;4973121;28;20050;-54
2023/07/07 08:33:28;;;;;;;14.32;4.93;;;;;;;19.61;83.22;100150.16;4973886;28;21968;-55
2023/07/07 08:35:55;;;;;;;10.32;3.85;;;;;;;19.67;82.66;100154.09;4974489;28;20053;-55
2023/07/07 08:38:22;;;;;;;9.15;5.18;;;;;;;19.74;82.71;100151.19;4974223;28;20061;-51
2023/07/07 08:40:55;;;;;;;11.60;4.18;;;;;;;19.87;82.06;100157.03;4972791;28;20237;-52
2023/07/07 08:43:28;;;;;;;14.85;5.25;;;;;;;20.01;81.41;100156.84;4975639;28;20046;-56
2023/07/07 08:46:19;;;;;;;17.85;5.88;;;;;;;20.10;81.16;100171.16;4973510;28;21280;-56
2023/07/07 08:48:52;;;;;;;19.05;6.57;;;;;;;20.03;80.72;100165.66;4972118;28;20712;-54
2023/07/07 08:51:24;;;;;;;11.73;5.90;;;;;;;19.97;80.83;100164.53;4957001;28;20089;-53
2023/07/07 08:54:11;;;;;;;12.48;4.85;;;;;;;20.05;81.55;100169.63;4975850;28;20046;-55
2023/07/07 08:56:52;;;;;;;19.60;7.68;;;;;;;20.40;81.18;100173.16;4970552;28;20054;-55
2023/07/07 08:59:57;;;;;;;15.57;5.35;;;;;;;20.51;80.85;100183.03;4956700;28;20131;-56
2023/07/07 09:02:46;;;;;;;15.25;5.53;;;;;;;20.44;80.41;100185.13;4954180;28;20196;-53
2023/07/07 09:05:20;;;;;;;20.38;6.07;;;;;;;20.38;80.60;100181.22;4975608;28;20105;-56
2023/07/07 09:08:14;;;;;;;19.27;5.88;;;;;;;20.34;81.08;100180.47;4973752;28;20081;-53
2023/07/07 09:10:47;;;;;;;16.65;5.25;;;;;;;20.36;80.79;100186.50;4974564;28;20112;-56
2023/07/07 09:13:28;;;;;;;13.20;5.13;;;;;;;20.37;80.24;100188.06;4956396;28;20136;-55
2023/07/07 09:16:27;;;;;;;19.23;4.93;;;;;;;20.33;79.74;100181.72;4974671;28;20050;-54
2023/07/07 09:19:07;;;;;;;16.75;5.32;;;;;;;20.72;78.93;100179.06;4959944;28;20147;-56
2023/07/07 09:21:49;;;;;;;12.45;5.15;;;;;;;20.93;78.50;100170.25;4973464;28;20053;-59
2023/07/07 09:24:25;;;;;;;12.13;4.97;;;;;;;20.94;77.40;100191.53;4975692;28;20459;-56
2023/07/07 09:27:00;;;;;;;10.55;4.72;;;;;;;20.80;77.44;100186.16;4952836;28;20053;-53
2023/07/07 09:29:30;;;;;;;17.83;4.28;;;;;;;20.64;77.41;100191.66;4973186;28;20697;-53
2023/07/07 09:32:02;;;;;;;16.97;4.83;;;;;;;20.46;77.78;100203.19;4955853;28;20488;-54
2023/07/07 09:34:32;;;;;;;15.73;4.68;;;;;;;20.32;78.02;100194.97;4973679;28;20058;-56
2023/07/07 09:37:16;;;;;;;10.45;4.13;;;;;;;20.20;78.08;100197.53;4975211;28;20054;-53
2023/07/07 09:40:11;;;;;;;22.63;5.20;;;;;;;20.12;78.28;100193.22;4972671;28;20793;-55
2023/07/07 09:42:47;;;;;;;18.42;4.75;;;;;;;20.07;78.31;100199.34;4975162;28;21632;-56
2023/07/07 09:45:32;;;;;;;15.80;4.88;;;;;;;20.02;78.47;100209.81;4972627;28;20167;-55
2023/07/07 09:48:26;;;;;;;16.05;5.13;;;;;;;19.97;79.21;100207.47;4973386;28;20042;-56
2023/07/07 09:51:32;;;;;;;13.80;4.45;;;;;;;20.08;79.08;100210.13;4973572;28;20045;-55
2023/07/07 09:53:59;;;;;;;13.05;4.15;;;;;;;20.82;78.36;100228.72;4975292;28;21259;-53
2023/07/07 09:56:37;;;;;;;20.23;5.32;;;;;;;21.29;76.56;100229.53;4973759;28;20046;-57
2023/07/07 09:59:16;;;;;;;17.45;5.47;;;;;;;21.76;75.95;100210.53;4971853;28;20050;-56
2023/07/07 10:01:48;;;;;;;17.13;4.57;;;;;;;22.35;74.83;100216.06;4973807;28;20058;-57
2023/07/07 10:04:19;;;;;;;17.88;5.95;;;;;;;22.69;73.94;100218.56;4975357;28;20504;-50
2023/07/07 10:06:54;;;;;;;12.98;4.20;;;;;;;22.78;73.04;100221.53;4976022;28;21607;-51
2023/07/07 10:09:21;;;;;;;21.20;5.20;;;;;;;22.50;73.45;100227.84;4973333;28;20271;-52
2023/07/07 10:11:50;;;;;;;18.10;5.80;;;;;;;22.26;73.94;100230.81;4972342;28;20125;-52
2023/07/07 10:14:37;;;;;;;18.13;4.40;;;;;;;22.17;74.15;100230.59;4972346;28;20068;-53
2023/07/07 10:17:21;;;;;;;11.98;4.35;;;;;;;21.89;74.58;100230.41;4972246;28;20050;-54
2023/07/07 10:19:56;;;;;;;11.02;3.75;;;;;;;21.66;74.85;100239.69;4973458;28;20049;-53
2023/07/07 10:22:23;;;;;;;10.77;2.90;;;;;;;21.38;75.13;100231.78;4974893;28;20112;-51
2023/07/07 10:24:50;;;;;;;16.17;3.97;;;;;;;21.13;75.10;100247.09;4973884;28;20056;-54
2023/07/07 10:27:21;;;;;;;20.60;3.72;;;;;;;20.88;75.47;100243.91;4973395;28;20053;-52
2023/07/07 10:29:48;;;;;;;10.00;3.55;;;;;;;20.78;76.41;100236.44;4972118;28;20160;-51
2023/07/07 10:32:22;;;;;;;9.50;3.25;;;;;;;21.54;75.17;100246.78;4973815;28;20184;-51
2023/07/07 10:34:54;;;;;;;11.55;3.25;;;;;;;22.48;73.31;100247.25;4974308;28;20061;-55
2023/07/07 10:37:29;;;;;;;;;;;;;;;23.07;71.69;100245.00;4975313;28;20042;-49
2023/07/07 10:39:57;;;;;;;11.80;2.58;;;;;;;23.15;71.47;100242.78;4973780;28;19929;-53
2023/07/07 10:42:27;;;;;;;10.98;2.53;;;;;;;23.12;71.71;100240.84;4974855;28;20046;-52
2023/07/07 10:44:57;;;;;;;12.23;3.13;;;;;;;22.80;71.67;100247.28;4977953;28;20108;-53
2023/07/07 10:47:36;;;;;;;10.50;3.78;;;;;;;22.24;72.34;100249.38;4975676;28;20238;-54
2023/07/07 10:50:11;;;;;;;7.78;2.40;;;;;;;21.81;73.18;100257.91;4975175;28;20058;-53
2023/07/07 10:52:44;;;;;;;13.13;1.95;;;;;;;21.52;73.70;100243.59;4958459;28;20048;-53
2023/07/07 10:55:35;;;;;;;8.23;2.53;;;;;;;21.24;74.32;100253.34;4958890;28;20041;-54
2023/07/07 10:58:14;;;;;;;5.30;1.52;;;;;;;20.97;74.90;100258.22;4977656;28;20050;-54
2023/07/07 11:01:11;;;;;;;6.45;1.90;;;;;;;20.82;75.30;100256.84;4976275;28;20042;-54
2023/07/07 11:04:17;;;;;;;5.93;2.13;;;;;;;20.66;75.29;100262.34;4944491;28;20791;-51
2023/07/07 11:07:03;;;;;;;9.15;2.50;;;;;;;20.47;75.63;100274.28;4935187;28;20046;-52
2023/07/07 11:09:34;;;;;;;12.50;3.85;;;;;;;20.43;76.07;100267.91;4977130;28;20134;-54
2023/07/07 11:12:09;;;;;;;15.98;4.30;;;;;;;20.40;76.03;100268.75;4977911;28;20068;-51
2023/07/07 11:14:55;;;;;;;10.73;3.38;;;;;;;20.34;76.39;100271.25;4975331;28;20052;-50
2023/07/07 11:18:03;;;;;;;13.05;4.57;;;;;;;20.19;76.89;100274.63;4975760;28;20056;-52
2023/07/07 11:20:51;;;;;;;14.85;3.20;;;;;;;20.09;76.98;100287.63;4959602;28;20510;-52
2023/07/07 11:23:33;;;;;;;8.15;3.25;;;;;;;20.00;77.36;100279.69;4975232;28;20626;-54
2023/07/07 11:26:19;;;;;;;6.68;2.80;;;;;;;19.91;77.71;100276.59;4975341;28;20096;-51
2023/07/07 11:28:55;;;;;;;8.02;2.10;;;;;;;19.91;77.66;100270.97;4974964;28;20052;-51
2023/07/07 11:32:04;;;;;;;11.60;2.22;;;;;;;20.07;77.70;100283.66;4975247;28;20049;-55
2023/07/07 11:34:34;;;;;;;7.20;2.53;;;;;;;20.17;77.51;100283.50;4973089;28;20054;-52
2023/07/07 11:37:19;;;;;;;6.75;2.55;;;;;;;20.21;77.28;100284.25;4960593;28;20077;-57
2023/07/07 11:40:04;;;;;;;11.07;3.17;;;;;;;20.23;76.95;100287.41;4970310;28;20419;-56
2023/07/07 11:43:05;;;;;;;11.80;3.38;;;;;;;20.23;77.15;100289.44;4968738;28;20054;-51
2023/07/07 11:45:31;;;;;;;12.38;3.42;;;;;;;20.28;76.89;100300.25;4972612;28;20144;-51
2023/07/07 11:48:38;;;;;;;8.88;3.00;;;;;;;20.47;76.90;100291.94;4947514;28;20137;-57